KMKC

Charles B Wheeler Downtown Airport

Kansas City, Missouri, USA
KMKC 241720Z 2418/2518 17009KT P6SM BKN025 FM242000 18005KT P6SM BKN035 FM250900 18004KT P6SM BKN020 FM251200 22004KT P6SM BKN010 FM251600 28006KT P6SM BKN020
Issued Valid From Valid To
Sep-24 @ 17:20 UTC
(3 hours ago)
Sep-24 @ 18:00 UTC
(2 hours ago)
Sep-25 @ 18:00 UTC
(in 22 hours)
Expired Click to View Sep-24 @ 18:00 to Sep-24 @ 20:00
KMKC 241720Z 2418/2518 17009KT P6SM BKN025
Wind Visibility Clouds
170° at 9 knots Greater than 6 miles
  • Broken at 2,500' AGL
From Sep-24 @ 20:00 to Sep-25 @ 09:00
FM242000 18005KT P6SM BKN035
Wind Visibility Clouds
180° at 5 knots Greater than 6 miles
  • Broken at 3,500' AGL
From Sep-25 @ 09:00 to Sep-25 @ 12:00
FM250900 18004KT P6SM BKN020
Wind Visibility Clouds
180° at 4 knots Greater than 6 miles
  • Broken at 2,000' AGL
From Sep-25 @ 12:00 to Sep-25 @ 16:00
FM251200 22004KT P6SM BKN010
Wind Visibility Clouds
220° at 4 knots Greater than 6 miles
  • Broken at 1,000' AGL
From Sep-25 @ 16:00 to Sep-25 @ 18:00
FM251600 28006KT P6SM BKN020
Wind Visibility Clouds
280° at 6 knots Greater than 6 miles
  • Broken at 2,000' AGL
KMKC 241720Z 2418/2518 17009KT P6SM BKN025 FM242000 18005KT P6SM BKN035 FM250900 18004KT P6SM BKN020 FM251200 22004KT P6SM BKN010 FM251600 28006KT P6SM BKN020
Issued Sep-24 @ 17:20 UTC
(3 hours ago)
Valid From Sep-24 @ 18:00 UTC
(2 hours ago)
Valid To Sep-25 @ 18:00 UTC
(in 22 hours)
Sep-24 @ 18:00 - Sep-24 @ 20:00
Wind Visibility
170° at 9 knots Greater than 6 miles
Clouds
  • Broken at 2,500' AGL
From Sep-24 @ 20:00 - Sep-25 @ 09:00
Wind Visibility
180° at 5 knots Greater than 6 miles
Clouds
  • Broken at 3,500' AGL
From Sep-25 @ 09:00 - Sep-25 @ 12:00
Wind Visibility
180° at 4 knots Greater than 6 miles
Clouds
  • Broken at 2,000' AGL
From Sep-25 @ 12:00 - Sep-25 @ 16:00
Wind Visibility
220° at 4 knots Greater than 6 miles
Clouds
  • Broken at 1,000' AGL
From Sep-25 @ 16:00 - Sep-25 @ 18:00
Wind Visibility
280° at 6 knots Greater than 6 miles
Clouds
  • Broken at 2,000' AGL